Latest Weather Observations for Mallacoota

IDV60801

Issued at 5:02 pm EST Monday 27 April 2015 (issued every 30 minutes, with the page automatically refreshed every 10 minutes)

About weather observations | Map of weather stations | Latest weather observations for VIC | Other Formats
Station Details ID: 084084 Name: MALLACOOTA Lat: -37.60 Lon: 149.73 Height: 22.0 m
Data from the previous 72 hours. | See also: Recent months at Mallacoota
Date/Time
EST
Temp
°C
App
Temp
°C
Dew
Point
Rel
Hum
%
Delta-T
°C
Wind Press
QNH
hPa
Press
MSL
hPa
Rain
since 9 am
mm
Dir
 
Spd
km/h
Gust
km/h
Spd
kts
Gust
kts
27/05:00pm 12.7 10.1 9.5 81 1.6 W 13 20 7 11 1020.4 - 0.0
27/04:30pm 13.2 10.0 9.8 80 1.7 W 17 26 9 14 1020.0 - 0.0
27/04:00pm 13.5 10.6 9.7 78 1.9 WSW 15 26 8 14 1019.6 - 0.0
27/03:30pm 14.1 11.4 10.3 78 2.0 SW 15 24 8 13 1019.4 - 0.0
27/03:00pm 13.6 11.4 10.9 84 1.4 W 13 22 7 12 1019.2 1019.1 0.0
27/02:30pm 13.0 9.3 10.2 83 1.4 SW 20 33 11 18 1019.0 - 0.0
27/02:00pm 13.8 10.1 9.6 76 2.2 WSW 19 35 10 19 1018.7 - 0.0
27/01:30pm 14.7 11.5 9.9 73 2.5 WSW 17 28 9 15 1018.4 - 0.0
27/01:00pm 14.2 10.5 9.6 74 2.4 WSW 19 33 10 18 1018.5 - 0.0
27/12:30pm 14.8 11.1 10.2 74 2.4 WSW 20 35 11 19 1018.6 - 0.0
27/12:00pm 14.2 10.4 9.8 75 2.3 WSW 20 32 11 17 1018.8 1018.7 0.0
27/11:30am 13.4 9.5 9.6 78 1.9 W 20 32 11 17 1019.0 - 0.0
27/11:00am 13.8 9.9 9.5 75 2.2 W 20 35 11 19 1018.9 - 0.0
27/10:30am 13.2 10.4 10.0 81 1.6 W 15 28 8 15 1018.9 - 0.0
27/10:00am 13.1 10.0 10.3 83 1.5 W 17 24 9 13 1018.9 - 0.0
27/09:30am 12.9 9.6 9.5 80 1.7 W 17 26 9 14 1018.6 - 0.0
27/09:00am 12.3 9.0 9.5 83 1.4 W 17 26 9 14 1018.1 1018.0 8.4
27/08:30am 12.7 9.2 10.2 85 1.3 W 19 33 10 18 1018.1 - 8.4
27/08:00am 12.1 8.5 10.0 87 1.1 W 19 32 10 17 1017.8 - 8.4
27/07:30am 11.5 8.6 9.8 89 0.9 W 15 24 8 13 1017.4 - 8.4
27/07:00am 11.1 8.2 9.5 90 0.8 W 15 24 8 13 1017.0 - 8.4
27/06:30am 10.9 7.9 9.3 90 0.8 W 15 28 8 15 1016.6 - 8.2
27/06:00am 10.6 7.5 9.0 90 0.8 W 15 26 8 14 1016.4 1016.3 8.2
27/05:30am 10.7 7.3 9.1 90 0.8 W 17 24 9 13 1016.3 - 8.2
27/05:00am 10.4 7.3 8.8 90 0.8 W 15 28 8 15 1015.9 - 8.2
27/04:30am 10.4 6.9 8.8 90 0.8 W 17 35 9 19 1015.6 - 8.0
27/04:00am 10.4 7.3 8.7 89 0.8 W 15 24 8 13 1015.6 - 8.0
27/03:30am 10.4 6.9 8.7 89 0.8 W 17 32 9 17 1015.4 - 7.0
27/03:00am 10.3 7.1 8.6 89 0.8 W 15 26 8 14 1015.4 1015.3 7.0
27/02:30am 10.3 6.3 8.4 88 0.9 W 19 28 10 15 1015.4 - 6.8
27/02:00am 10.3 7.1 8.4 88 0.9 W 15 24 8 13 1015.5 - 6.6
27/01:30am 10.7 6.6 8.5 86 1.1 W 20 35 11 19 1015.7 - 6.0
27/01:00am 10.4 6.8 8.3 87 1.0 W 17 28 9 15 1015.5 - 5.8
27/12:30am 10.6 6.7 8.5 87 1.0 W 19 32 10 17 1015.6 - 5.8
27/12:00am 10.6 7.1 8.7 88 0.9 W 17 28 9 15 1015.8 1015.7 5.8
 
Date/Time
EST
Temp
°C
App
Temp
°C
Dew
Point
Rel
Hum
%
Delta-T
°C
Wind Press
QNH
hPa
Press
MSL
hPa
Rain
since 9 am
mm
Dir
 
Spd
km/h
Gust
km/h
Spd
kts
Gust
kts
26/11:30pm 10.7 7.2 8.8 88 0.9 W 17 28 9 15 1015.8 - 5.8
26/11:00pm 10.8 6.4 9.1 89 0.8 W 22 43 12 23 1015.8 - 5.6
26/10:30pm 10.8 7.4 9.2 90 0.8 W 17 30 9 16 1015.6 - 5.4
26/10:00pm 10.8 7.4 9.1 89 0.8 W 17 37 9 20 1015.9 - 5.2
26/09:30pm 11.0 7.2 9.1 88 0.9 W 19 32 10 17 1016.1 - 4.4
26/09:00pm 11.0 7.2 8.9 87 1.0 W 19 32 10 17 1015.8 1015.7 4.0
26/08:30pm 11.2 7.3 8.6 84 1.3 WSW 19 35 10 19 1015.7 - 3.8
26/08:00pm 12.1 8.2 8.6 79 1.7 WSW 19 32 10 17 1015.6 - 3.8
26/07:30pm 12.0 8.9 8.7 80 1.6 W 15 28 8 15 1015.1 - 3.8
26/07:00pm 12.2 9.1 8.7 79 1.7 W 15 28 8 15 1015.0 - 3.8
26/06:30pm 12.4 9.4 9.2 81 1.6 W 15 30 8 16 1014.7 - 3.8
26/06:00pm 12.3 9.3 9.1 81 1.6 WSW 15 35 8 19 1014.4 1014.3 3.8
26/05:30pm 12.5 9.4 9.0 79 1.8 W 15 24 8 13 1014.1 - 3.8
26/05:00pm 12.5 9.0 8.8 78 1.9 WSW 17 28 9 15 1013.7 - 3.8
26/04:30pm 12.8 8.7 8.7 76 2.1 W 20 33 11 18 1013.5 - 3.8
26/04:00pm 13.4 8.6 8.7 73 2.4 W 24 41 13 22 1013.0 - 3.8
26/03:30pm 13.0 9.2 9.1 77 2.0 W 19 32 10 17 1012.9 - 3.8
26/03:00pm 13.0 8.2 8.9 76 2.1 WSW 24 43 13 23 1012.7 1012.6 3.8
26/02:30pm 13.3 8.6 9.4 77 2.0 W 24 44 13 24 1012.4 - 3.8
26/02:00pm 13.2 8.4 10.4 83 1.5 W 26 50 14 27 1012.3 - 3.8
26/01:30pm 13.3 9.1 11.2 87 1.1 WSW 24 46 13 25 1012.1 - 3.8
26/01:00pm 13.4 10.4 11.8 90 0.9 WSW 19 32 10 17 1011.9 - 3.8
26/12:30pm 13.4 10.3 11.6 89 1.0 WSW 19 35 10 19 1011.8 - 3.8
26/12:00pm 13.6 10.3 11.7 88 1.0 WSW 20 33 11 18 1012.0 1011.9 3.4
26/11:30am 14.1 9.0 10.7 80 1.8 SSW 28 44 15 24 1011.9 - 0.4
26/11:00am 17.7 13.2 11.5 67 3.4 SSW 26 37 14 20 1011.6 - 0.0
26/10:30am 16.9 13.8 12.2 74 2.6 SSW 20 37 11 20 1011.5 - 0.0
26/10:00am 16.6 12.5 11.5 72 2.8 SSW 24 41 13 22 1011.4 - 0.0
26/09:30am 17.2 12.9 11.9 71 2.9 SSW 26 39 14 21 1011.2 - 0.0
26/09:00am 16.4 12.9 12.2 76 2.3 SSW 22 35 12 19 1011.0 1010.9 13.2
26/08:30am 16.4 12.3 12.6 78 2.1 SSW 26 39 14 21 1010.8 - 13.2
26/08:09am 16.2 11.4 12.9 81 1.8 S 30 48 16 26 1010.5 - 13.2
26/08:00am 16.3 10.7 13.4 83 1.6 S 35 46 19 25 1010.3 - 13.2
26/07:30am 16.2 11.2 13.5 84 1.5 S 32 43 17 23 1009.9 - 13.2
26/07:00am 16.0 11.1 12.7 81 1.8 S 30 48 16 26 1009.3 - 13.2
26/06:33am 16.3 10.8 13.6 84 1.5 S 35 54 19 29 1009.0 - 13.2
26/06:30am 16.3 10.8 13.6 84 1.5 S 35 48 19 26 1008.9 - 13.2
26/06:22am 16.2 10.7 13.5 84 1.5 S 35 54 19 29 1008.7 - 13.2
26/06:00am 16.1 11.1 14.1 88 1.1 S 33 50 18 27 1008.3 1008.2 13.2
26/05:30am 15.6 9.6 14.3 92 0.7 S 39 56 21 30 1008.0 - 13.2
26/05:00am 15.1 10.3 14.0 93 0.6 S 32 54 17 29 1008.0 - 12.0
26/04:57am 15.4 11.5 14.3 93 0.6 S 28 46 15 25 1007.8 - 11.6
26/04:30am 13.2 11.8 12.3 94 0.5 W 11 19 6 10 1007.6 - 11.6
26/04:00am 12.8 10.5 11.7 93 0.6 W 15 26 8 14 1007.6 - 9.0
26/03:30am 12.8 10.5 11.7 93 0.6 W 15 22 8 12 1007.6 - 6.6
26/03:00am 12.9 9.8 11.6 92 0.7 W 19 30 10 16 1007.4 1007.3 2.6
26/02:30am 12.9 10.2 11.6 92 0.7 WSW 17 24 9 13 1007.7 - 1.4
26/02:00am 12.7 10.3 11.4 92 0.7 W 15 24 8 13 1007.9 - 0.4
26/01:30am 12.7 10.7 11.4 92 0.7 W 13 22 7 12 1008.1 - 0.4
26/01:00am 12.7 10.7 11.6 93 0.6 WSW 13 20 7 11 1008.2 - 0.4
26/12:30am 12.7 11.1 11.6 93 0.6 W 11 24 6 13 1008.1 - 0.4
26/12:00am 12.7 10.7 11.6 93 0.6 W 13 20 7 11 1008.2 1008.1 0.4
 
Date/Time
EST
Temp
°C
App
Temp
°C
Dew
Point
Rel
Hum
%
Delta-T
°C
Wind Press
QNH
hPa
Press
MSL
hPa
Rain
since 9 am
mm
Dir
 
Spd
km/h
Gust
km/h
Spd
kts
Gust
kts
25/11:30pm 12.7 11.1 11.6 93 0.6 WNW 11 17 6 9 1008.5 - 0.4
25/11:00pm 12.8 10.9 11.7 93 0.6 WNW 13 20 7 11 1008.6 - 0.4
25/10:30pm 12.9 11.4 11.8 93 0.6 W 11 17 6 9 1008.9 - 0.4
25/10:00pm 13.0 11.5 11.9 93 0.6 WNW 11 15 6 8 1009.1 - 0.4
25/09:30pm 13.2 11.7 11.9 92 0.7 W 11 20 6 11 1008.8 - 0.4
25/09:00pm 13.7 12.4 12.4 92 0.7 W 11 20 6 11 1008.9 1008.8 0.2
25/08:30pm 13.3 12.2 11.9 91 0.8 WNW 9 15 5 8 1009.0 - 0.0
25/08:00pm 13.4 12.3 12.0 91 0.8 W 9 15 5 8 1008.7 - 0.0
25/07:30pm 13.3 12.1 11.7 90 0.9 WNW 9 15 5 8 1008.8 - 0.0
25/07:00pm 13.3 12.1 11.5 89 1.0 WNW 9 13 5 7 1008.8 - 0.0
25/06:30pm 13.5 12.6 11.4 87 1.1 WNW 7 11 4 6 1008.7 - 0.0
25/06:00pm 13.8 12.5 11.3 85 1.3 NW 9 11 5 6 1008.0 1007.9 0.0
25/05:30pm 14.4 12.8 11.4 82 1.6 W 11 15 6 8 1007.6 - 0.0
25/05:00pm 14.5 12.5 11.5 82 1.6 WSW 13 22 7 12 1007.3 - 0.0
25/04:30pm 15.3 13.9 12.2 82 1.7 WSW 11 19 6 10 1007.6 - 0.0
25/04:00pm 16.3 15.0 13.8 85 1.4 SW 13 19 7 10 1007.0 - 0.0
25/03:30pm 16.7 15.1 14.0 84 1.5 SSW 15 20 8 11 1007.1 - 0.0
25/03:00pm 17.1 16.0 14.2 83 1.7 SSW 13 19 7 10 1007.0 1006.9 0.0
25/02:30pm 17.3 16.0 13.8 80 2.0 SSW 13 20 7 11 1006.9 - 0.0
25/02:00pm 18.2 17.5 14.3 78 2.2 S 11 19 6 10 1006.7 - 0.0
25/01:30pm 18.6 18.0 14.5 77 2.4 S 11 17 6 9 1006.7 - 0.0
25/01:00pm 18.0 17.7 14.3 79 2.1 SSW 9 13 5 7 1006.8 - 0.0
25/12:30pm 17.7 17.0 14.2 80 2.0 S 11 17 6 9 1007.4 - 0.0
25/12:00pm 17.8 16.6 14.1 79 2.1 S 13 19 7 10 1007.6 1007.5 0.0
25/11:30am 19.0 18.0 13.4 70 3.2 SW 11 19 6 10 1007.7 - 0.0
25/11:00am 18.4 17.7 13.3 72 2.9 SW 9 13 5 7 1007.7 - 0.0
25/10:30am 18.8 18.1 14.3 75 2.6 NW 11 17 6 9 1007.7 - 0.0
25/10:00am 17.5 17.1 14.2 81 1.9 WNW 9 13 5 7 1007.8 - 0.0
25/09:30am 16.9 16.5 15.1 89 1.0 NW 11 15 6 8 1007.7 - 0.0
25/09:00am 15.8 15.2 14.7 93 0.6 WNW 11 17 6 9 1007.5 1007.4 1.0
25/08:30am 15.1 15.1 14.3 95 0.5 WNW 7 11 4 6 1007.4 - 1.0
25/08:00am 13.6 12.4 12.8 95 0.4 WNW 11 15 6 8 1007.1 - 1.0
25/07:30am 12.8 12.1 12.0 95 0.4 N 7 7 4 4 1006.9 - 1.0
25/07:00am 12.0 9.9 11.2 95 0.4 NW 13 17 7 9 1006.6 - 1.0
25/06:30am 12.0 10.7 11.2 95 0.4 NW 9 13 5 7 1006.6 - 1.0
25/06:00am 11.6 10.2 10.8 95 0.4 N 9 9 5 5 1006.3 1006.2 1.0
25/05:30am 11.7 12.0 10.9 95 0.4 CALM 0 6 0 3 1005.9 - 1.0
25/05:00am 12.2 12.2 11.3 94 0.5 NNW 2 7 1 4 1005.9 - 1.0
25/04:30am 13.2 12.6 12.4 95 0.4 WNW 7 11 4 6 1005.9 - 1.0
25/04:00am 13.6 12.8 12.8 95 0.4 WNW 9 13 5 7 1005.6 - 1.0
25/03:30am 13.7 12.5 12.9 95 0.4 WNW 11 15 6 8 1005.5 - 1.0
25/03:00am 13.6 12.7 12.7 94 0.5 WNW 9 13 5 7 1005.4 1005.3 1.0
25/02:30am 13.8 13.0 12.9 94 0.5 WNW 9 13 5 7 1005.6 - 1.0
25/02:00am 13.9 12.8 13.0 94 0.5 WNW 11 15 6 8 1005.5 - 1.0
25/01:30am 14.4 13.5 13.6 95 0.4 WNW 11 19 6 10 1005.2 - 1.0
25/01:00am 14.0 13.3 13.2 95 0.4 W 9 13 5 7 1005.3 - 0.8
25/12:30am 13.8 13.0 13.0 95 0.4 WNW 9 11 5 6 1005.2 - 0.8
25/12:00am 13.8 13.0 13.0 95 0.4 WNW 9 13 5 7 1005.1 1005.0 0.8
 
Date/Time
EST
Temp
°C
App
Temp
°C
Dew
Point
Rel
Hum
%
Delta-T
°C
Wind Press
QNH
hPa
Press
MSL
hPa
Rain
since 9 am
mm
Dir
 
Spd
km/h
Gust
km/h
Spd
kts
Gust
kts
24/11:30pm 14.0 13.9 13.2 95 0.4 WNW 6 9 3 5 1005.0 - 0.8
24/11:00pm 14.2 13.6 13.4 95 0.4 NNW 9 11 5 6 1004.8 - 0.8
24/10:30pm 14.1 13.8 13.3 95 0.4 NNW 7 7 4 4 1004.7 - 0.8
24/10:00pm 13.7 14.6 12.9 95 0.4 CALM 0 0 0 0 1004.8 - 0.8
24/09:30pm 14.0 13.8 13.1 94 0.5 WNW 6 6 3 3 1004.6 - 0.8
24/09:00pm 15.0 14.6 14.0 94 0.6 NNW 9 15 5 8 1004.6 1004.5 0.8
24/08:30pm 15.3 15.9 14.3 94 0.6 NW 4 9 2 5 1004.4 - 0.8
24/08:00pm 15.2 15.2 14.2 94 0.6 NW 7 11 4 6 1004.1 - 0.8
24/07:30pm 15.4 15.5 14.4 94 0.6 NNW 7 11 4 6 1004.1 - 0.8
24/07:00pm 15.8 16.0 14.7 93 0.6 NNW 7 9 4 5 1003.9 - 0.8
24/06:30pm 15.9 17.5 14.8 93 0.6 CALM 0 0 0 0 1003.8 - 0.8
24/06:00pm 16.2 17.4 14.9 92 0.8 NNW 2 6 1 3 1003.6 1003.5 0.8
24/05:30pm 16.5 17.1 15.2 92 0.8 N 6 9 3 5 1003.4 - 0.8

Other Formats:

Comma delimited format used in spreadsheet applications
http://www.bom.gov.au/fwo/IDV60801/IDV60801.94935.axf

JavaScript Object Notation format (JSON) in row-major order
http://www.bom.gov.au/fwo/IDV60801/IDV60801.94935.json